Time;durP1;ratioP1;P1;durP2;ratioP2;P2;SDS_P1;SDS_P2;PMS_P1;PMS_P2;Temp;Humidity;BMP_temperature;BMP_pressure;BME280_temperature;BME280_humidity;BME280_pressure;Samples;Min_cycle;Max_cycle;Signal;HPM_P1;HPM_P2
2023/03/29 00:00:58;;;;;;;9.23;5.07;;;;;;;5.59;100.00;101588.41;4905951;29;20024;-82
2023/03/29 00:03:25;;;;;;;8.70;3.00;;;;;;;5.48;100.00;101577.63;4931023;29;20027;-82
2023/03/29 00:05:56;;;;;;;7.43;3.55;;;;;;;5.54;100.00;101571.91;4925870;29;20039;-82
2023/03/29 00:08:24;;;;;;;6.28;3.55;;;;;;;5.44;100.00;101576.66;4904079;29;20542;-82
2023/03/29 00:10:50;;;;;;;8.38;3.17;;;;;;;5.43;100.00;101568.63;4926142;29;20163;-82
2023/03/29 00:13:17;;;;;;;7.72;4.50;;;;;;;5.55;100.00;101559.66;4924228;29;20035;-82
2023/03/29 00:15:42;;;;;;;6.90;3.00;;;;;;;5.49;100.00;101551.47;4905879;29;20039;-82
2023/03/29 00:18:08;;;;;;;7.00;3.95;;;;;;;5.36;100.00;101546.91;4912350;29;20024;-83
2023/03/29 00:20:33;;;;;;;7.93;4.13;;;;;;;5.44;100.00;101564.69;4932514;29;20028;-83
2023/03/29 00:22:58;;;;;;;5.75;3.90;;;;;;;5.46;100.00;101554.09;4924843;29;20110;-82
2023/03/29 00:25:24;;;;;;;8.27;4.22;;;;;;;5.42;100.00;101540.06;4933029;29;20046;-82
2023/03/29 00:27:49;;;;;;;7.35;4.55;;;;;;;5.48;100.00;101543.47;4923363;29;20032;-83
2023/03/29 00:30:15;;;;;;;10.63;5.03;;;;;;;5.42;100.00;101551.16;4909863;29;20034;-83
2023/03/29 00:32:41;;;;;;;8.57;4.20;;;;;;;5.55;100.00;101554.13;4940072;29;20137;-83
2023/03/29 00:35:07;;;;;;;6.38;5.07;;;;;;;5.46;100.00;101556.88;4914899;29;20245;-83
2023/03/29 00:37:33;;;;;;;11.15;4.57;;;;;;;5.40;100.00;101530.44;4915325;29;20501;-83
2023/03/29 00:39:58;;;;;;;7.13;4.93;;;;;;;5.46;100.00;101535.50;4913795;29;20027;-83
2023/03/29 00:42:24;;;;;;;8.48;4.18;;;;;;;5.44;100.00;101548.88;4910216;29;20067;-83
2023/03/29 00:44:59;;;;;;;7.15;4.18;;;;;;;5.47;100.00;101537.09;4910687;29;20067;-83
2023/03/29 00:47:35;;;;;;;10.50;5.55;;;;;;;5.38;100.00;101533.53;4921803;29;20044;-83
2023/03/29 00:50:13;;;;;;;7.63;4.53;;;;;;;5.44;100.00;101526.66;4922389;29;20659;-83
2023/03/29 00:52:41;;;;;;;7.25;4.75;;;;;;;5.49;100.00;101529.25;4906604;29;20099;-83
2023/03/29 00:55:14;;;;;;;9.80;4.88;;;;;;;5.53;100.00;101523.88;4907706;29;20067;-83
2023/03/29 00:57:42;;;;;;;11.52;4.60;;;;;;;5.64;100.00;101513.25;4925563;29;20067;-83
2023/03/29 01:00:09;;;;;;;9.05;4.88;;;;;;;5.43;100.00;101513.09;4924331;29;20545;-83
2023/03/29 01:02:38;;;;;;;10.50;4.53;;;;;;;5.47;100.00;101514.91;4929494;29;20469;-83
2023/03/29 01:05:18;;;;;;;10.55;4.93;;;;;;;5.47;100.00;101509.34;4918670;29;20027;-83
2023/03/29 01:07:57;;;;;;;7.75;5.22;;;;;;;5.44;100.00;101507.22;4909041;29;20023;-83
2023/03/29 01:10:47;;;;;;;9.95;4.80;;;;;;;5.41;100.00;101494.00;4907119;29;20040;-83
2023/03/29 01:13:18;;;;;;;8.43;5.65;;;;;;;5.47;100.00;101494.66;4921866;29;20174;-83
2023/03/29 01:15:45;;;;;;;10.27;4.70;;;;;;;5.53;100.00;101498.09;4923470;29;20035;-82
2023/03/29 01:18:11;;;;;;;9.05;5.53;;;;;;;5.56;100.00;101483.53;4908274;29;20532;-83
2023/03/29 01:21:13;;;;;;;8.45;4.20;;;;;;;5.55;100.00;101498.56;4902919;29;20032;-83
2023/03/29 01:23:53;;;;;;;8.63;5.07;;;;;;;5.66;100.00;101489.56;4917596;29;20494;-82
2023/03/29 01:26:40;;;;;;;8.25;4.47;;;;;;;5.49;100.00;101468.19;4885058;29;20088;-83
2023/03/29 01:29:15;;;;;;;9.70;5.47;;;;;;;5.45;100.00;101483.88;4919300;29;20539;-82
2023/03/29 01:31:44;;;;;;;7.18;4.38;;;;;;;5.50;100.00;101478.16;4924478;29;20471;-83
2023/03/29 01:34:18;;;;;;;8.63;4.90;;;;;;;5.60;100.00;101481.72;4923052;29;20506;-82
2023/03/29 01:37:11;;;;;;;8.88;4.90;;;;;;;5.50;100.00;101483.72;4918954;29;20402;-82
2023/03/29 01:39:36;;;;;;;9.27;5.13;;;;;;;5.62;100.00;101476.66;4910344;29;20048;-82
2023/03/29 01:42:15;;;;;;;7.68;4.80;;;;;;;5.50;100.00;101480.09;4904346;29;20042;-82
2023/03/29 01:45:07;;;;;;;6.65;4.90;;;;;;;5.50;100.00;101457.88;4918242;29;20024;-82
2023/03/29 01:47:59;;;;;;;8.90;4.00;;;;;;;5.56;100.00;101475.19;4918565;29;20051;-82
2023/03/29 01:50:39;;;;;;;8.60;5.73;;;;;;;5.66;100.00;101469.31;4871451;29;1094720;-82
2023/03/29 01:53:17;;;;;;;8.45;4.85;;;;;;;5.49;100.00;101462.63;4926705;29;20569;-82
2023/03/29 01:55:50;;;;;;;7.85;4.93;;;;;;;5.52;100.00;101449.22;4905320;29;20092;-83
2023/03/29 01:58:17;;;;;;;10.75;5.07;;;;;;;5.60;100.00;101456.72;4928701;29;20402;-82
2023/03/29 02:00:44;;;;;;;8.77;4.78;;;;;;;5.60;100.00;101453.94;4921817;29;20124;-82
2023/03/29 02:03:09;;;;;;;11.35;5.53;;;;;;;5.64;100.00;101449.38;4924343;29;20039;-83
2023/03/29 02:05:38;;;;;;;9.55;4.68;;;;;;;5.54;100.00;101436.66;4925988;29;20537;-82
2023/03/29 02:08:06;;;;;;;9.63;5.80;;;;;;;5.52;100.00;101432.56;4926598;29;20466;-82
2023/03/29 02:10:33;;;;;;;9.18;5.03;;;;;;;5.65;100.00;101432.38;4901278;29;20031;-83
2023/03/29 02:12:59;;;;;;;9.18;5.25;;;;;;;5.65;100.00;101437.09;4922232;29;20044;-83
2023/03/29 02:15:25;;;;;;;7.50;4.38;;;;;;;5.65;100.00;101431.53;4909206;29;20490;-83
2023/03/29 02:17:51;;;;;;;10.98;5.78;;;;;;;5.56;100.00;101425.22;4910964;29;20459;-83
2023/03/29 02:20:27;;;;;;;10.00;5.25;;;;;;;5.57;100.00;101418.53;4921094;29;20441;-83
2023/03/29 02:23:13;;;;;;;8.18;5.65;;;;;;;5.56;100.00;101426.03;4902355;29;20094;-83
2023/03/29 02:25:40;;;;;;;10.60;5.35;;;;;;;5.62;100.00;101427.47;4903522;29;20028;-83
2023/03/29 02:28:06;;;;;;;8.75;4.35;;;;;;;5.62;100.00;101423.88;4895440;29;20032;-83
2023/03/29 02:30:55;;;;;;;7.03;4.55;;;;;;;5.63;100.00;101426.34;4906276;29;20020;-83
2023/03/29 02:33:32;;;;;;;12.60;5.15;;;;;;;5.58;100.00;101420.94;4905102;29;20051;-83
2023/03/29 02:36:03;;;;;;;12.20;5.57;;;;;;;5.60;100.00;101406.75;4909383;29;20498;-83
2023/03/29 02:38:30;;;;;;;10.77;4.28;;;;;;;5.64;100.00;101404.94;4908891;29;20028;-83
2023/03/29 02:40:57;;;;;;;11.52;4.80;;;;;;;5.67;100.00;101413.44;4907742;29;20507;-83
2023/03/29 02:43:24;;;;;;;10.88;5.10;;;;;;;5.63;100.00;101400.50;4921742;29;20038;-82
2023/03/29 02:45:51;;;;;;;9.38;5.10;;;;;;;5.65;100.00;101403.78;4906589;29;20034;-83
2023/03/29 02:48:20;;;;;;;9.73;4.47;;;;;;;5.59;100.00;101396.78;4903446;29;20023;-83
2023/03/29 02:50:50;;;;;;;7.75;4.55;;;;;;;5.73;100.00;101402.94;4903230;29;20557;-83
2023/03/29 02:53:21;;;;;;;10.25;5.75;;;;;;;5.59;100.00;101394.81;4902107;29;20040;-83
2023/03/29 02:55:47;;;;;;;9.18;4.93;;;;;;;5.69;100.00;101400.03;4916424;29;20099;-83
2023/03/29 02:58:14;;;;;;;10.20;4.63;;;;;;;5.65;100.00;101389.88;4922380;29;20569;-83
2023/03/29 03:00:44;;;;;;;8.50;4.78;;;;;;;5.57;100.00;101379.66;4904720;29;20059;-83
2023/03/29 03:03:10;;;;;;;8.70;4.95;;;;;;;5.57;100.00;101382.44;4908698;29;20517;-83
2023/03/29 03:05:37;;;;;;;11.23;5.10;;;;;;;5.63;100.00;101376.34;4912210;29;20031;-83
2023/03/29 03:08:03;;;;;;;9.77;4.57;;;;;;;5.73;100.00;101383.50;4907964;29;20039;-83
2023/03/29 03:10:29;;;;;;;6.63;4.55;;;;;;;5.48;100.00;101361.06;4921900;29;20395;-83
2023/03/29 03:12:55;;;;;;;10.00;4.95;;;;;;;5.63;100.00;101356.06;4901550;29;20023;-83
2023/03/29 03:15:20;;;;;;;6.50;4.53;;;;;;;5.65;100.00;101360.19;4920315;29;20031;-83
2023/03/29 03:17:48;;;;;;;9.57;6.15;;;;;;;5.66;100.00;101361.78;4927112;29;20047;-83
2023/03/29 03:20:13;;;;;;;6.63;4.28;;;;;;;5.60;100.00;101360.34;4905456;29;20036;-83
2023/03/29 03:22:41;;;;;;;13.88;4.90;;;;;;;5.61;100.00;101359.22;4924358;29;20416;-83
2023/03/29 03:25:09;;;;;;;9.43;5.32;;;;;;;5.64;100.00;101363.28;4907677;29;20028;-83
2023/03/29 03:27:35;;;;;;;11.07;5.80;;;;;;;5.61;100.00;101341.75;4901435;29;20161;-83
2023/03/29 03:30:04;;;;;;;10.85;5.43;;;;;;;5.68;100.00;101344.81;4903427;29;20473;-82
2023/03/29 03:32:29;;;;;;;7.50;4.93;;;;;;;5.75;100.00;101350.63;4923678;29;20466;-83
2023/03/29 03:34:55;;;;;;;8.95;4.88;;;;;;;5.73;100.00;101336.28;4909612;29;20027;-83
2023/03/29 03:37:21;;;;;;;8.65;4.57;;;;;;;5.72;100.00;101354.09;4924281;29;20490;-83
2023/03/29 03:39:46;;;;;;;11.18;5.82;;;;;;;5.71;100.00;101346.91;4908909;29;20055;-83
2023/03/29 03:42:12;;;;;;;9.25;4.75;;;;;;;5.75;100.00;101347.06;4906661;29;20427;-82
2023/03/29 03:44:38;;;;;;;8.25;4.75;;;;;;;5.77;100.00;101345.56;4903966;29;20041;-83
2023/03/29 03:47:04;;;;;;;12.35;5.07;;;;;;;5.76;100.00;101340.38;4917065;29;20048;-83
2023/03/29 03:49:31;;;;;;;10.80;5.30;;;;;;;5.74;100.00;101342.66;4902031;29;20499;-83
2023/03/29 03:51:56;;;;;;;8.43;4.32;;;;;;;5.69;100.00;101338.09;4906960;29;20474;-83
2023/03/29 03:54:22;;;;;;;9.23;5.55;;;;;;;5.70;100.00;101342.50;4909513;29;20041;-83
2023/03/29 03:56:48;;;;;;;12.40;5.60;;;;;;;5.66;100.00;101338.75;4907660;29;20051;-83
2023/03/29 03:59:13;;;;;;;8.50;4.93;;;;;;;5.72;100.00;101334.66;4919465;29;20078;-83
2023/03/29 04:01:42;;;;;;;9.52;4.93;;;;;;;5.63;100.00;101334.69;4924034;29;20028;-83
2023/03/29 04:04:09;;;;;;;8.63;5.25;;;;;;;5.67;100.00;101340.38;4921414;29;20028;-83
2023/03/29 04:06:35;;;;;;;6.75;4.43;;;;;;;5.77;100.00;101340.00;4923996;29;20040;-83
2023/03/29 04:09:01;;;;;;;7.78;4.68;;;;;;;5.86;100.00;101328.84;4907609;29;20059;-83
2023/03/29 04:11:26;;;;;;;8.77;5.45;;;;;;;5.66;100.00;101317.34;4902772;29;20581;-83
2023/03/29 04:13:52;;;;;;;10.10;5.50;;;;;;;5.77;100.00;101328.09;4922655;29;20028;-83
2023/03/29 04:16:17;;;;;;;11.10;5.82;;;;;;;5.68;100.00;101319.81;4896536;29;20031;-83
2023/03/29 04:18:42;;;;;;;11.43;5.60;;;;;;;5.71;100.00;101330.22;4907823;29;20122;-83
2023/03/29 04:21:08;;;;;;;10.23;5.43;;;;;;;5.69;100.00;101329.75;4907913;29;20115;-84
2023/03/29 04:23:34;;;;;;;12.75;5.55;;;;;;;5.70;100.00;101334.19;4925534;29;20516;-83
2023/03/29 04:26:00;;;;;;;9.77;5.88;;;;;;;5.60;100.00;101335.34;4921207;29;20063;-84
2023/03/29 04:28:25;;;;;;;10.00;5.55;;;;;;;5.57;100.00;101324.13;4919789;29;20119;-83
2023/03/29 04:30:51;;;;;;;10.68;5.38;;;;;;;5.72;100.00;101328.28;4920012;29;20030;-83
2023/03/29 04:33:16;;;;;;;11.38;5.57;;;;;;;5.59;100.00;101305.16;4922037;29;20041;-83
2023/03/29 04:35:42;;;;;;;11.02;5.25;;;;;;;5.70;100.00;101323.88;4923835;29;20031;-83
2023/03/29 04:38:08;;;;;;;9.27;5.45;;;;;;;5.76;100.00;101324.50;4924136;29;20417;-83
2023/03/29 04:40:35;;;;;;;12.95;5.60;;;;;;;5.75;100.00;101314.53;4905342;29;20039;-83
2023/03/29 04:43:01;;;;;;;11.07;6.43;;;;;;;5.76;100.00;101327.28;4915651;29;20553;-83
2023/03/29 04:45:27;;;;;;;12.23;6.95;;;;;;;5.70;100.00;101323.88;4898275;29;20034;-83
2023/03/29 04:47:56;;;;;;;11.15;5.95;;;;;;;5.65;100.00;101326.84;4916039;29;20027;-83
2023/03/29 04:50:21;;;;;;;12.02;6.03;;;;;;;5.78;100.00;101325.00;4923648;29;20055;-83
2023/03/29 04:52:46;;;;;;;9.98;6.00;;;;;;;5.69;100.00;101313.09;4902384;29;20048;-83
2023/03/29 04:55:12;;;;;;;10.35;6.65;;;;;;;5.74;100.00;101320.44;4922762;29;20046;-83
2023/03/29 04:57:40;;;;;;;21.55;7.55;;;;;;;5.69;100.00;101304.75;4906776;29;20098;-83
2023/03/29 05:00:16;;;;;;;9.98;6.45;;;;;;;5.77;100.00;101317.78;4920532;29;20039;-83
2023/03/29 05:02:45;;;;;;;12.38;5.68;;;;;;;5.79;100.00;101317.47;4907693;29;20067;-83
2023/03/29 05:05:11;;;;;;;14.10;5.75;;;;;;;5.88;100.00;101323.78;4919839;29;20487;-83
2023/03/29 05:07:38;;;;;;;12.80;7.35;;;;;;;5.76;100.00;101315.38;4908170;29;20675;-83
2023/03/29 05:10:05;;;;;;;14.85;6.43;;;;;;;5.66;100.00;101305.44;4909065;29;20119;-83
2023/03/29 05:12:31;;;;;;;13.23;7.00;;;;;;;5.73;100.00;101316.03;4911416;29;20042;-83
2023/03/29 05:14:57;;;;;;;15.27;6.35;;;;;;;5.65;100.00;101304.63;4919770;29;20131;-83
2023/03/29 05:17:22;;;;;;;13.25;6.20;;;;;;;5.77;100.00;101308.66;4920138;29;20111;-83
2023/03/29 05:19:48;;;;;;;11.70;6.47;;;;;;;5.70;100.00;101295.28;4896565;29;20031;-83
2023/03/29 05:22:14;;;;;;;11.63;6.63;;;;;;;5.78;100.00;101319.44;4921825;29;20394;-83
2023/03/29 05:24:40;;;;;;;10.60;7.28;;;;;;;5.81;100.00;101321.53;4909330;29;20041;-83
2023/03/29 05:27:06;;;;;;;13.20;8.15;;;;;;;5.72;100.00;101303.28;4907692;29;20087;-83
2023/03/29 05:29:31;;;;;;;12.15;6.57;;;;;;;5.85;100.00;101316.94;4917046;29;20032;-83
2023/03/29 05:31:58;;;;;;;15.40;6.63;;;;;;;5.91;100.00;101318.38;4903087;29;20124;-84
2023/03/29 05:34:24;;;;;;;12.98;6.57;;;;;;;5.80;100.00;101297.69;4906315;29;20463;-83
2023/03/29 05:36:50;;;;;;;9.82;6.30;;;;;;;5.82;100.00;101305.66;4899660;29;20051;-83
2023/03/29 05:39:16;;;;;;;24.10;8.63;;;;;;;5.86;100.00;101307.47;4904240;29;20118;-84
2023/03/29 05:41:41;;;;;;;15.23;6.93;;;;;;;5.86;100.00;101315.81;4919730;29;20114;-83
2023/03/29 05:44:07;;;;;;;13.27;6.80;;;;;;;5.81;100.00;101302.09;4914587;29;20035;-83
2023/03/29 05:46:32;;;;;;;16.75;7.45;;;;;;;5.85;100.00;101300.25;4928088;29;20036;-83
2023/03/29 05:48:58;;;;;;;11.73;7.18;;;;;;;5.89;100.00;101304.00;4912318;29;20038;-83
2023/03/29 05:51:23;;;;;;;9.52;7.43;;;;;;;5.98;100.00;101305.94;4914979;29;20064;-83
2023/03/29 05:53:50;;;;;;;12.77;6.97;;;;;;;5.98;100.00;101300.38;4924374;29;20126;-83
2023/03/29 05:56:15;;;;;;;13.07;6.78;;;;;;;6.03;100.00;101308.53;4908809;29;20520;-83
2023/03/29 05:58:41;;;;;;;13.88;7.07;;;;;;;6.05;100.00;101311.78;4926947;29;20035;-83
2023/03/29 06:01:14;;;;;;;10.57;6.18;;;;;;;6.03;100.00;101294.63;4907776;29;20035;-83
2023/03/29 06:03:39;;;;;;;14.48;7.50;;;;;;;5.93;100.00;101292.22;4910547;29;20439;-83
2023/03/29 06:06:05;;;;;;;12.68;7.10;;;;;;;5.98;100.00;101298.41;4911494;29;20035;-83
2023/03/29 06:08:32;;;;;;;12.30;6.50;;;;;;;6.66;100.00;101302.97;4905991;29;20028;-80
2023/03/29 06:11:04;;;;;;;12.55;7.70;;;;;;;6.63;100.00;101303.69;4919270;29;20758;-79
2023/03/29 06:13:32;;;;;;;11.77;6.32;;;;;;;6.31;100.00;101300.50;4923037;29;20577;-79
2023/03/29 06:15:58;;;;;;;13.57;7.07;;;;;;;6.21;100.00;101298.91;4922827;29;20027;-79
2023/03/29 06:18:23;;;;;;;15.73;7.18;;;;;;;6.16;100.00;101299.13;4911124;29;20759;-79
2023/03/29 06:20:50;;;;;;;15.88;7.50;;;;;;;6.17;100.00;101300.75;4908177;29;20030;-79
2023/03/29 06:23:16;;;;;;;18.92;8.63;;;;;;;6.13;100.00;101290.66;4905519;29;20032;-79
2023/03/29 06:25:43;;;;;;;13.90;7.55;;;;;;;6.24;100.00;101303.81;4901818;29;20118;-79
2023/03/29 06:28:09;;;;;;;14.23;7.22;;;;;;;6.20;100.00;101297.31;4904354;29;20454;-79
2023/03/29 06:30:34;;;;;;;13.68;7.38;;;;;;;6.20;100.00;101294.53;4903859;29;20551;-79
2023/03/29 06:33:00;;;;;;;11.30;7.38;;;;;;;6.20;100.00;101305.66;4904713;29;20569;-79
2023/03/29 06:35:26;;;;;;;11.20;6.20;;;;;;;6.26;100.00;101306.25;4922544;29;20091;-79
2023/03/29 06:37:52;;;;;;;12.95;7.22;;;;;;;6.22;100.00;101311.69;4905986;29;20122;-79
2023/03/29 06:40:20;;;;;;;14.82;6.97;;;;;;;6.23;100.00;101304.16;4917621;29;20036;-79
2023/03/29 06:42:46;;;;;;;11.57;7.63;;;;;;;6.31;100.00;101306.88;4901360;29;20465;-79
2023/03/29 06:45:12;;;;;;;13.93;7.78;;;;;;;6.30;100.00;101302.47;4920570;29;20344;-79
2023/03/29 06:47:38;;;;;;;13.80;7.07;;;;;;;6.65;100.00;101307.72;4902725;29;20066;-78
2023/03/29 06:50:04;;;;;;;25.35;7.25;;;;;;;6.54;100.00;101305.72;4920046;29;20100;-79
2023/03/29 06:52:30;;;;;;;15.75;7.10;;;;;;;6.39;100.00;101315.47;4907390;29;20106;-78
2023/03/29 06:54:55;;;;;;;14.50;7.10;;;;;;;6.46;100.00;101310.19;4922109;29;20482;-79
2023/03/29 06:57:21;;;;;;;14.75;7.07;;;;;;;6.55;100.00;101302.59;4918906;29;20322;-79
2023/03/29 06:59:47;;;;;;;12.27;7.00;;;;;;;6.55;100.00;101310.94;4919987;29;20027;-78
2023/03/29 07:02:13;;;;;;;12.90;6.93;;;;;;;6.57;100.00;101316.16;4924800;29;20494;-79
2023/03/29 07:04:40;;;;;;;14.18;7.88;;;;;;;6.59;100.00;101320.22;4906734;29;20482;-79
2023/03/29 07:07:10;;;;;;;10.73;6.95;;;;;;;6.64;100.00;101316.41;4919637;29;20040;-79
2023/03/29 07:09:38;;;;;;;14.30;7.35;;;;;;;6.59;100.00;101319.41;4917978;29;20130;-79
2023/03/29 07:12:04;;;;;;;12.88;6.82;;;;;;;6.65;100.00;101324.44;4906421;29;20038;-79
2023/03/29 07:14:30;;;;;;;10.88;7.32;;;;;;;6.63;100.00;101332.31;4923698;29;20122;-79
2023/03/29 07:16:57;;;;;;;14.48;7.47;;;;;;;6.69;100.00;101324.56;4925077;29;20027;-79
2023/03/29 07:19:24;;;;;;;10.07;6.88;;;;;;;6.70;100.00;101332.59;4929064;29;21510;-79
2023/03/29 07:21:51;;;;;;;16.13;8.10;;;;;;;6.72;100.00;101337.78;4923860;29;20107;-79
2023/03/29 07:24:18;;;;;;;15.13;8.27;;;;;;;6.78;100.00;101338.41;4925016;29;20038;-79
2023/03/29 07:26:45;;;;;;;9.15;6.28;;;;;;;6.80;100.00;101336.09;4929094;29;20038;-79
2023/03/29 07:29:10;;;;;;;17.13;8.45;;;;;;;6.82;100.00;101333.78;4912431;29;20494;-79
2023/03/29 07:31:39;;;;;;;12.25;6.65;;;;;;;6.88;100.00;101332.41;4910140;29;20034;-79
2023/03/29 07:34:10;;;;;;;12.23;7.10;;;;;;;6.90;100.00;101335.69;4926760;29;20122;-79
2023/03/29 07:36:39;;;;;;;16.27;7.90;;;;;;;6.94;100.00;101342.19;4923159;29;21212;-78
2023/03/29 07:39:05;;;;;;;13.68;7.47;;;;;;;6.99;100.00;101341.97;4926738;29;21604;-79
2023/03/29 07:41:31;;;;;;;12.65;7.43;;;;;;;6.98;100.00;101332.00;4930808;29;20023;-79
2023/03/29 07:43:56;;;;;;;12.57;7.32;;;;;;;7.09;100.00;101332.38;4926961;29;20118;-79
2023/03/29 07:46:22;;;;;;;14.65;7.18;;;;;;;7.10;100.00;101329.25;4927246;29;20184;-78
2023/03/29 07:48:47;;;;;;;15.40;8.10;;;;;;;7.12;100.00;101321.34;4923496;29;20040;-79
2023/03/29 07:51:13;;;;;;;16.52;7.03;;;;;;;7.17;100.00;101323.13;4930308;29;20079;-81
2023/03/29 07:53:39;;;;;;;12.10;6.57;;;;;;;7.26;100.00;101325.81;4907837;29;20027;-79
2023/03/29 07:56:04;;;;;;;16.10;8.40;;;;;;;7.27;100.00;101338.56;4907205;29;20094;-79
2023/03/29 07:58:30;;;;;;;14.85;7.35;;;;;;;7.36;100.00;101335.69;4924059;29;20038;-79
2023/03/29 08:00:58;;;;;;;14.52;7.00;;;;;;;7.44;100.00;101348.69;4919995;29;20482;-78
2023/03/29 08:03:24;;;;;;;12.65;7.28;;;;;;;7.55;100.00;101349.91;4930677;29;20020;-78
2023/03/29 08:05:49;;;;;;;15.20;7.90;;;;;;;7.56;100.00;101334.00;4929975;29;20027;-79
2023/03/29 08:08:14;;;;;;;11.52;7.88;;;;;;;7.65;100.00;101343.03;4932449;29;20434;-79
2023/03/29 08:10:41;;;;;;;11.13;6.53;;;;;;;7.68;100.00;101339.59;4927171;29;20474;-79
2023/03/29 08:13:08;;;;;;;14.00;7.00;;;;;;;7.74;100.00;101346.56;4924801;29;20041;-79
2023/03/29 08:15:35;;;;;;;13.00;6.70;;;;;;;7.82;100.00;101348.41;4905761;29;20035;-79
2023/03/29 08:18:00;;;;;;;12.27;7.10;;;;;;;7.82;100.00;101348.41;4922444;29;20094;-78
2023/03/29 08:20:26;;;;;;;12.55;7.25;;;;;;;7.90;100.00;101343.88;4924203;29;20024;-79
2023/03/29 08:22:53;;;;;;;12.38;7.57;;;;;;;7.93;100.00;101343.19;4926562;29;20493;-79
2023/03/29 08:25:18;;;;;;;14.07;6.93;;;;;;;7.87;100.00;101337.03;4907525;29;20477;-79
2023/03/29 08:27:44;;;;;;;14.10;7.72;;;;;;;8.01;100.00;101338.66;4916231;29;20046;-79
2023/03/29 08:30:09;;;;;;;12.32;7.53;;;;;;;8.12;100.00;101334.25;4916705;29;20038;-79
2023/03/29 08:32:36;;;;;;;16.42;7.47;;;;;;;8.19;100.00;101334.44;4921908;29;20047;-79
2023/03/29 08:35:03;;;;;;;17.88;7.97;;;;;;;8.21;100.00;101320.16;4929400;29;20510;-79
2023/03/29 08:37:30;;;;;;;14.93;8.05;;;;;;;8.29;100.00;101333.19;4927732;29;20390;-79
2023/03/29 08:39:56;;;;;;;17.48;7.95;;;;;;;8.43;100.00;101330.84;4927793;29;20032;-79
2023/03/29 08:42:51;;;;;;;13.73;8.30;;;;;;;8.38;100.00;101330.25;4909170;29;20398;-79
2023/03/29 08:45:44;;;;;;;20.48;8.55;;;;;;;8.47;100.00;101334.53;4909668;29;20625;-79
2023/03/29 08:48:13;;;;;;;13.38;8.35;;;;;;;8.46;100.00;101329.34;4929894;29;20433;-79
2023/03/29 08:50:55;;;;;;;19.70;8.45;;;;;;;8.53;100.00;101329.53;4928173;29;20048;-79
2023/03/29 08:53:52;;;;;;;16.95;7.15;;;;;;;8.60;100.00;101326.13;4930363;29;20031;-79
2023/03/29 08:56:23;;;;;;;10.85;7.15;;;;;;;8.60;100.00;101321.41;4908545;29;20170;-79
2023/03/29 08:58:51;;;;;;;14.63;8.45;;;;;;;8.66;100.00;101319.94;4922177;29;20718;-79
2023/03/29 09:01:16;;;;;;;12.27;7.07;;;;;;;8.71;100.00;101322.50;4925267;29;20151;-79
2023/03/29 09:03:52;;;;;;;14.13;8.88;;;;;;;8.80;100.00;101310.38;4907323;29;20111;-79
2023/03/29 09:06:20;;;;;;;11.40;8.27;;;;;;;8.85;100.00;101322.09;4922691;29;20128;-79
2023/03/29 09:08:48;;;;;;;16.40;8.65;;;;;;;8.95;100.00;101313.22;4928075;29;20035;-79
2023/03/29 09:11:23;;;;;;;17.55;8.65;;;;;;;9.05;100.00;101309.09;4910019;29;20445;-79
2023/03/29 09:14:16;;;;;;;18.80;8.70;;;;;;;9.11;100.00;101307.66;4923765;29;20573;-79
2023/03/29 09:16:48;;;;;;;18.08;8.60;;;;;;;9.13;100.00;101315.69;4924346;29;20035;-79
2023/03/29 09:19:47;;;;;;;13.70;7.93;;;;;;;9.21;100.00;101328.66;4906271;29;20118;-79
2023/03/29 09:22:40;;;;;;;10.80;7.95;;;;;;;9.27;100.00;101330.03;4907470;29;20035;-79
2023/03/29 09:25:43;;;;;;;14.57;7.85;;;;;;;9.31;100.00;101322.56;4910216;29;20058;-79
2023/03/29 09:28:24;;;;;;;15.02;7.88;;;;;;;9.34;100.00;101321.84;4885231;29;20048;-79
2023/03/29 09:31:02;;;;;;;17.02;7.93;;;;;;;9.36;100.00;101321.50;4927145;29;20063;-79
2023/03/29 09:33:41;;;;;;;14.93;9.13;;;;;;;9.40;100.00;101325.19;4924945;29;20073;-79
2023/03/29 09:36:15;;;;;;;15.77;7.88;;;;;;;9.49;100.00;101334.22;4921799;29;20028;-79
2023/03/29 09:38:42;;;;;;;12.50;7.22;;;;;;;9.56;100.00;101339.97;4922691;29;20279;-79
2023/03/29 09:41:20;;;;;;;14.50;8.50;;;;;;;9.57;100.00;101336.03;4929700;29;20708;-79
2023/03/29 09:43:48;;;;;;;13.38;7.78;;;;;;;9.62;100.00;101328.53;4912165;29;20543;-79
2023/03/29 09:46:33;;;;;;;14.30;8.05;;;;;;;9.63;100.00;101335.75;4913355;29;20062;-79
2023/03/29 09:49:00;;;;;;;20.67;8.80;;;;;;;9.68;100.00;101327.91;4909713;29;20028;-79
2023/03/29 09:51:28;;;;;;;12.52;7.80;;;;;;;9.72;100.00;101323.22;4920180;29;20088;-79
2023/03/29 09:53:56;;;;;;;17.98;9.13;;;;;;;9.81;100.00;101317.44;4909205;29;20524;-79
2023/03/29 09:56:22;;;;;;;18.80;7.43;;;;;;;9.82;100.00;101302.28;4905984;29;20110;-79
2023/03/29 09:58:47;;;;;;;22.25;9.32;;;;;;;10.09;100.00;101305.31;4911806;29;20154;-79
2023/03/29 10:01:19;;;;;;;14.95;8.00;;;;;;;10.19;100.00;101299.16;4922175;29;20028;-79
2023/03/29 10:03:50;;;;;;;17.83;7.30;;;;;;;10.19;100.00;101304.75;4924365;29;20830;-79
2023/03/29 10:06:17;;;;;;;11.95;7.68;;;;;;;10.38;100.00;101307.59;4918341;29;20037;-79
2023/03/29 10:08:50;;;;;;;15.30;8.85;;;;;;;10.42;100.00;101298.50;4913905;29;20770;-79
2023/03/29 10:11:37;;;;;;;19.30;8.40;;;;;;;10.55;100.00;101299.97;4908303;29;20498;-79
2023/03/29 10:14:06;;;;;;;15.02;10.07;;;;;;;10.45;100.00;101300.53;4911233;29;20044;-79
2023/03/29 10:16:40;;;;;;;13.95;7.45;;;;;;;10.58;100.00;101302.84;4926722;29;20038;-79
2023/03/29 10:19:26;;;;;;;12.60;8.50;;;;;;;10.68;100.00;101298.63;4929113;29;20440;-79
2023/03/29 10:21:53;;;;;;;16.67;9.10;;;;;;;10.85;100.00;101302.97;4926683;29;20553;-79
2023/03/29 10:24:24;;;;;;;16.35;8.50;;;;;;;10.88;100.00;101298.63;4929677;29;20130;-79
2023/03/29 10:26:56;;;;;;;19.70;9.10;;;;;;;10.92;100.00;101285.50;4930874;29;20099;-79
2023/03/29 10:29:24;;;;;;;13.70;8.50;;;;;;;11.13;100.00;101285.09;4928408;29;20086;-79
2023/03/29 10:31:50;;;;;;;13.98;8.55;;;;;;;11.12;100.00;101289.91;4912820;29;20070;-79
2023/03/29 10:34:17;;;;;;;15.13;8.70;;;;;;;11.13;100.00;101283.13;4925694;29;20066;-79
2023/03/29 10:37:00;;;;;;;13.85;8.88;;;;;;;11.24;100.00;101285.31;4929642;29;20486;-79
2023/03/29 10:39:28;;;;;;;15.43;8.70;;;;;;;11.38;100.00;101286.38;4924347;29;20035;-79
2023/03/29 10:41:57;;;;;;;13.90;8.77;;;;;;;11.39;100.00;101287.97;4902863;29;20107;-79
2023/03/29 10:44:26;;;;;;;15.77;8.68;;;;;;;11.58;100.00;101278.69;4923281;29;20038;-79
2023/03/29 10:46:52;;;;;;;16.85;8.70;;;;;;;11.65;100.00;101271.59;4907211;29;20518;-79
2023/03/29 10:49:21;;;;;;;20.20;9.30;;;;;;;11.75;100.00;101276.56;4917056;29;20028;-79
2023/03/29 10:51:48;;;;;;;12.35;8.02;;;;;;;11.83;100.00;101261.47;4908540;29;20690;-79
2023/03/29 10:54:16;;;;;;;14.48;7.43;;;;;;;11.92;100.00;101266.84;4924205;29;20387;-79
2023/03/29 10:56:47;;;;;;;18.90;8.57;;;;;;;11.93;100.00;101262.84;4925139;29;20062;-79
2023/03/29 10:59:36;;;;;;;17.60;8.85;;;;;;;11.86;100.00;101260.69;4925760;29;20023;-79
2023/03/29 11:02:13;;;;;;;18.63;9.68;;;;;;;11.93;100.00;101274.88;4922609;29;20015;-79
2023/03/29 11:05:08;;;;;;;25.38;11.60;;;;;;;12.12;100.00;101268.34;4923082;29;20039;-79
2023/03/29 11:07:49;;;;;;;16.52;9.35;;;;;;;12.29;100.00;101266.97;4921854;29;20383;-79
2023/03/29 11:10:30;;;;;;;20.42;10.50;;;;;;;12.43;100.00;101268.34;4920059;29;20260;-79
2023/03/29 11:13:24;;;;;;;21.80;10.15;;;;;;;12.39;100.00;101269.09;4925523;29;20560;-79
2023/03/29 11:16:19;;;;;;;15.88;8.90;;;;;;;12.26;100.00;101273.34;4903970;29;20565;-79
2023/03/29 11:19:03;;;;;;;15.98;10.13;;;;;;;12.35;100.00;101276.69;4906236;29;20036;-79
2023/03/29 11:21:56;;;;;;;20.60;10.48;;;;;;;12.37;100.00;101273.47;4918979;29;20038;-79
2023/03/29 11:24:36;;;;;;;21.25;11.57;;;;;;;12.56;100.00;101281.75;4920798;29;20059;-79
2023/03/29 11:27:21;;;;;;;15.57;8.65;;;;;;;12.43;100.00;101282.38;4923271;29;20043;-80
2023/03/29 11:30:17;;;;;;;20.05;9.77;;;;;;;12.49;100.00;101273.25;4902277;29;20035;-79
2023/03/29 11:32:55;;;;;;;25.25;13.60;;;;;;;12.66;100.00;101269.03;4926116;29;20032;-79